Time;durP1;ratioP1;P1;durP2;ratioP2;P2;SDS_P1;SDS_P2;PMS_P1;PMS_P2;Temp;Humidity;BMP_temperature;BMP_pressure;BME280_temperature;BME280_humidity;BME280_pressure;Samples;Min_cycle;Max_cycle;Signal;HPM_P1;HPM_P2
2021/12/15 00:01:18;;;;;;;50.90;21.08;;;9.80;99.90;;;;;;5080865;28;20040;-84
2021/12/15 00:03:44;;;;;;;49.42;21.33;;;9.80;99.90;;;;;;5065331;28;20337;-84
2021/12/15 00:06:16;;;;;;;49.13;21.75;;;9.80;99.90;;;;;;5068222;28;20175;-83
2021/12/15 00:08:44;;;;;;;52.10;21.00;;;9.80;99.90;;;;;;5059297;28;20036;-83
2021/12/15 00:11:11;;;;;;;48.85;21.27;;;9.80;99.90;;;;;;5060178;28;20048;-83
2021/12/15 00:13:41;;;;;;;49.70;20.50;;;9.80;99.90;;;;;;5062684;28;20366;-83
2021/12/15 00:16:09;;;;;;;51.92;21.27;;;9.80;99.90;;;;;;5059155;28;20824;-83
2021/12/15 00:18:36;;;;;;;42.20;18.75;;;9.80;99.90;;;;;;5071332;28;20065;-83
2021/12/15 00:21:04;;;;;;;48.05;19.65;;;9.80;99.90;;;;;;5074734;28;20040;-83
2021/12/15 00:23:30;;;;;;;47.25;21.70;;;9.80;99.90;;;;;;5061284;28;20382;-83
2021/12/15 00:25:56;;;;;;;49.47;20.90;;;9.80;99.90;;;;;;5066684;28;20039;-83
2021/12/15 00:28:21;;;;;;;49.70;20.58;;;9.80;99.90;;;;;;5073633;28;20040;-83
2021/12/15 00:30:47;;;;;;;59.85;21.73;;;9.80;99.90;;;;;;5063323;28;20040;-83
2021/12/15 00:33:13;;;;;;;58.00;22.40;;;9.80;99.90;;;;;;5079344;28;20044;-83
2021/12/15 00:35:39;;;;;;;60.25;22.58;;;9.80;99.90;;;;;;5067087;28;20028;-83
2021/12/15 00:38:06;;;;;;;47.72;20.10;;;9.80;99.90;;;;;;5062020;28;20046;-83
2021/12/15 00:40:32;;;;;;;54.45;21.75;;;9.80;99.90;;;;;;5078615;28;20064;-83
2021/12/15 00:42:58;;;;;;;59.65;22.40;;;9.80;99.90;;;;;;5079172;28;20075;-83
2021/12/15 00:45:24;;;;;;;55.70;20.83;;;9.80;99.90;;;;;;5072819;28;20059;-83
2021/12/15 00:47:50;;;;;;;56.10;21.92;;;9.80;99.90;;;;;;5074468;28;20047;-83
2021/12/15 00:50:18;;;;;;;57.88;21.88;;;9.80;99.90;;;;;;5075182;28;20064;-83
2021/12/15 00:52:44;;;;;;;57.08;22.55;;;9.80;99.90;;;;;;5081654;28;20097;-83
2021/12/15 00:55:14;;;;;;;61.00;22.08;;;9.80;99.90;;;;;;5066863;28;20058;-83
2021/12/15 00:57:40;;;;;;;57.17;21.65;;;9.80;99.90;;;;;;5074579;28;20040;-83
2021/12/15 01:00:11;;;;;;;56.90;20.60;;;9.80;99.90;;;;;;5057737;28;20033;-81
2021/12/15 01:02:36;;;;;;;64.38;22.60;;;9.80;99.90;;;;;;5061385;28;20044;-81
2021/12/15 01:05:04;;;;;;;69.07;22.70;;;9.80;99.90;;;;;;5079053;28;20283;-81
2021/12/15 01:07:30;;;;;;;49.95;18.65;;;9.80;99.90;;;;;;5063457;28;20066;-81
2021/12/15 01:09:57;;;;;;;61.75;19.85;;;9.80;99.90;;;;;;5073940;28;20056;-81
2021/12/15 01:21:01;;;;;;;58.13;20.70;;;9.80;99.90;;;;;;5076328;28;20040;-81
2021/12/15 01:23:31;;;;;;;60.28;21.30;;;9.80;99.90;;;;;;5073541;28;20134;-81
2021/12/15 01:26:10;;;;;;;55.58;20.90;;;9.80;99.90;;;;;;5064876;28;20068;-81
2021/12/15 01:28:36;;;;;;;65.03;21.48;;;9.80;99.90;;;;;;5075700;28;20485;-81
2021/12/15 01:31:03;;;;;;;53.30;20.95;;;9.80;99.90;;;;;;5067669;28;20122;-81
2021/12/15 01:33:29;;;;;;;55.70;21.08;;;9.80;99.90;;;;;;5077699;28;20078;-82
2021/12/15 01:35:58;;;;;;;54.72;21.35;;;9.80;99.90;;;;;;5061976;28;20064;-81
2021/12/15 01:38:27;;;;;;;61.20;21.52;;;9.80;99.90;;;;;;5077138;28;20040;-81
2021/12/15 01:40:52;;;;;;;53.03;19.85;;;9.80;99.90;;;;;;5081915;28;20051;-83
2021/12/15 01:43:25;;;;;;;54.22;19.73;;;9.80;99.90;;;;;;5068762;28;20477;-83
2021/12/15 01:48:41;;;;;;;51.80;18.90;;;9.80;99.90;;;;;;5072171;28;19962;-83
2021/12/15 01:51:09;;;;;;;54.65;20.08;;;9.80;99.90;;;;;;5077081;28;20049;-82
2021/12/15 01:53:35;;;;;;;56.17;19.73;;;9.80;99.90;;;;;;5083062;28;20044;-82
2021/12/15 01:56:04;;;;;;;50.17;18.70;;;9.70;99.90;;;;;;5075629;28;20123;-82
2021/12/15 01:58:29;;;;;;;50.33;18.98;;;9.80;99.90;;;;;;5059916;28;20177;-82
2021/12/15 02:01:00;;;;;;;53.22;18.83;;;9.80;99.90;;;;;;5081841;28;20123;-83
2021/12/15 02:03:26;;;;;;;52.33;18.98;;;9.80;99.90;;;;;;5073715;28;20041;-82
2021/12/15 02:05:54;;;;;;;53.38;18.55;;;9.80;99.90;;;;;;5080464;28;20449;-82
2021/12/15 02:08:20;;;;;;;55.20;18.80;;;9.80;99.90;;;;;;5070656;28;20390;-83
2021/12/15 02:10:47;;;;;;;54.15;19.95;;;9.80;99.90;;;;;;5059076;28;20067;-82
2021/12/15 02:13:16;;;;;;;60.00;22.63;;;9.90;99.90;;;;;;5069062;28;20040;-82
2021/12/15 02:15:46;;;;;;;62.67;21.05;;;9.80;99.90;;;;;;5075500;28;20041;-83
2021/12/15 02:18:14;;;;;;;53.47;18.73;;;9.80;99.90;;;;;;5075873;28;20035;-83
2021/12/15 02:20:57;;;;;;;61.33;21.98;;;9.80;99.90;;;;;;5061101;28;20044;-82
2021/12/15 02:23:32;;;;;;;54.55;21.02;;;9.90;99.90;;;;;;5081055;28;20486;-84
2021/12/15 02:26:00;;;;;;;61.47;21.60;;;9.80;99.90;;;;;;5077121;28;20094;-82
2021/12/15 02:28:27;;;;;;;58.63;22.95;;;9.80;99.90;;;;;;5079577;28;20052;-82
2021/12/15 02:30:58;;;;;;;58.67;21.92;;;9.80;99.90;;;;;;5077921;28;20131;-82
2021/12/15 02:33:54;;;;;;;58.20;23.83;;;9.80;99.90;;;;;;5071194;28;20572;-82
2021/12/15 02:39:03;;;;;;;57.67;21.67;;;9.80;99.90;;;;;;5078261;28;20040;-82
2021/12/15 02:41:32;;;;;;;62.05;22.92;;;9.80;99.90;;;;;;5081927;28;20047;-82
2021/12/15 02:44:03;;;;;;;54.35;22.27;;;9.80;99.90;;;;;;5077753;28;20135;-83
2021/12/15 02:46:31;;;;;;;67.88;24.75;;;9.80;99.90;;;;;;5076893;28;20043;-82
2021/12/15 02:48:57;;;;;;;59.78;23.27;;;9.80;99.90;;;;;;5076819;28;20190;-82
2021/12/15 02:51:24;;;;;;;53.88;21.85;;;9.80;99.90;;;;;;5077590;28;20127;-82
2021/12/15 02:53:50;;;;;;;62.97;23.58;;;9.80;99.90;;;;;;5062465;28;20095;-83
2021/12/15 02:56:16;;;;;;;62.75;24.65;;;9.80;99.90;;;;;;5072912;28;20449;-82
2021/12/15 02:58:52;;;;;;;52.63;21.20;;;9.80;99.90;;;;;;5080962;28;20035;-83
2021/12/15 03:01:30;;;;;;;65.43;25.33;;;9.80;99.90;;;;;;5072874;28;20517;-82
2021/12/15 03:04:13;;;;;;;65.93;23.77;;;9.80;99.90;;;;;;5068761;28;20043;-82
2021/12/15 03:07:09;;;;;;;60.85;25.35;;;9.80;99.90;;;;;;5059052;28;20036;-82
2021/12/15 03:17:39;;;;;;;62.25;23.25;;;9.80;99.90;;;;;;5080209;28;20040;-82
2021/12/15 03:20:07;;;;;;;67.22;26.08;;;9.70;99.90;;;;;;5068080;28;20450;-82
2021/12/15 03:22:33;;;;;;;66.80;26.00;;;9.70;99.90;;;;;;5077298;28;20036;-83
2021/12/15 03:24:59;;;;;;;64.53;24.85;;;9.70;99.90;;;;;;5081311;28;20047;-83
2021/12/15 03:33:28;;;;;;;68.22;27.27;;;9.70;99.90;;;;;;5085452;28;20071;-82
2021/12/15 03:36:02;;;;;;;62.78;25.83;;;9.70;99.90;;;;;;5082851;28;20045;-82
2021/12/15 03:38:28;;;;;;;60.53;24.98;;;9.70;99.90;;;;;;5080024;28;20040;-82
2021/12/15 03:40:55;;;;;;;64.68;27.33;;;9.70;99.90;;;;;;5078296;28;20469;-82
2021/12/15 03:43:22;;;;;;;67.30;26.15;;;9.70;99.90;;;;;;5076796;28;20043;-83
2021/12/15 03:45:55;;;;;;;69.05;27.02;;;9.70;99.90;;;;;;5076251;28;20062;-82
2021/12/15 03:48:25;;;;;;;62.63;25.80;;;9.70;99.90;;;;;;5070462;28;20125;-82
2021/12/15 03:50:53;;;;;;;70.10;27.20;;;9.70;99.90;;;;;;5063489;28;20056;-82
2021/12/15 03:53:19;;;;;;;65.68;27.60;;;9.70;99.90;;;;;;5073399;28;20056;-82
2021/12/15 03:55:46;;;;;;;61.72;26.45;;;9.60;99.90;;;;;;5080092;28;20032;-82
2021/12/15 03:58:14;;;;;;;64.18;27.13;;;9.70;99.90;;;;;;5075460;28;20047;-83
2021/12/15 04:00:47;;;;;;;68.25;28.48;;;9.70;99.90;;;;;;5061187;28;20114;-82
2021/12/15 04:03:34;;;;;;;64.47;25.45;;;9.70;99.90;;;;;;5070915;28;20092;-82
2021/12/15 04:06:02;;;;;;;62.28;25.73;;;9.70;99.90;;;;;;5069152;28;20173;-82
2021/12/15 04:08:29;;;;;;;69.82;27.58;;;9.70;99.90;;;;;;5068469;28;20044;-82
2021/12/15 04:10:56;;;;;;;69.85;28.25;;;9.60;99.90;;;;;;5076476;28;20046;-82
2021/12/15 04:13:22;;;;;;;73.82;29.45;;;9.60;99.90;;;;;;5078678;28;20127;-82
2021/12/15 04:15:54;;;;;;;66.35;28.60;;;9.60;99.90;;;;;;5071350;28;20170;-83
2021/12/15 04:18:20;;;;;;;68.78;28.38;;;9.60;99.90;;;;;;5087091;28;20043;-82
2021/12/15 04:20:46;;;;;;;67.72;29.45;;;9.60;99.90;;;;;;5073036;28;20361;-82
2021/12/15 04:23:18;;;;;;;64.78;28.45;;;9.60;99.90;;;;;;5080368;28;20036;-82
2021/12/15 04:25:45;;;;;;;;;;;9.60;99.90;;;;;;5075069;28;20513;-82
2021/12/15 04:28:20;;;;;;;65.15;27.13;;;9.60;99.90;;;;;;5080010;28;19916;-82
2021/12/15 04:30:54;;;;;;;65.40;27.90;;;9.60;99.90;;;;;;5079259;28;20485;-82
2021/12/15 04:33:24;;;;;;;61.50;25.40;;;9.60;99.90;;;;;;5075992;28;20037;-83
2021/12/15 04:35:53;;;;;;;67.78;29.42;;;9.60;99.90;;;;;;5063161;28;20037;-82
2021/12/15 04:38:20;;;;;;;60.50;26.70;;;9.60;99.90;;;;;;5071407;28;20040;-81
2021/12/15 04:40:46;;;;;;;67.93;29.67;;;9.60;99.90;;;;;;5064169;28;20110;-83
2021/12/15 04:43:12;;;;;;;63.20;29.45;;;9.60;99.90;;;;;;5084380;28;20384;-82
2021/12/15 04:45:38;;;;;;;70.35;29.90;;;9.60;99.90;;;;;;5068186;28;20039;-82
2021/12/15 04:48:05;;;;;;;69.13;29.45;;;9.60;99.90;;;;;;5057113;28;20119;-82
2021/12/15 04:50:32;;;;;;;67.28;28.13;;;9.60;99.90;;;;;;5067804;28;20066;-82
2021/12/15 04:53:02;;;;;;;67.68;28.45;;;9.60;99.90;;;;;;5081916;28;20051;-83
2021/12/15 04:55:29;;;;;;;65.97;28.65;;;9.60;99.90;;;;;;5074992;28;20089;-83
2021/12/15 04:57:59;;;;;;;69.60;29.92;;;9.60;99.90;;;;;;5073447;28;20043;-83
2021/12/15 05:00:29;;;;;;;62.08;28.08;;;9.60;99.90;;;;;;5081764;28;20086;-83
2021/12/15 05:02:56;;;;;;;59.08;27.15;;;9.60;99.90;;;;;;5064184;28;20040;-82
2021/12/15 05:05:23;;;;;;;68.90;28.90;;;9.60;99.90;;;;;;5077444;28;20127;-82
2021/12/15 05:07:50;;;;;;;66.30;29.10;;;9.60;99.90;;;;;;5076328;28;20036;-82
2021/12/15 05:10:18;;;;;;;63.83;28.50;;;9.60;99.90;;;;;;5060037;28;20029;-82
2021/12/15 05:12:44;;;;;;;64.35;29.73;;;9.60;99.90;;;;;;5065205;28;20032;-82
2021/12/15 05:15:10;;;;;;;64.47;28.35;;;9.60;99.90;;;;;;5074648;28;20039;-82
2021/12/15 05:17:36;;;;;;;66.35;30.27;;;9.60;99.90;;;;;;5070581;28;20048;-82
2021/12/15 05:20:05;;;;;;;63.47;27.95;;;9.60;99.90;;;;;;5066295;28;20590;-82
2021/12/15 05:22:33;;;;;;;61.72;29.58;;;9.50;99.90;;;;;;5076301;28;20055;-82
2021/12/15 05:24:59;;;;;;;66.90;30.15;;;9.60;99.90;;;;;;5074121;28;20481;-83
2021/12/15 05:27:25;;;;;;;64.28;29.13;;;9.60;99.90;;;;;;5074066;28;20038;-82
2021/12/15 05:29:51;;;;;;;66.70;28.73;;;9.60;99.90;;;;;;5079305;28;20474;-82
2021/12/15 05:32:18;;;;;;;64.60;29.13;;;9.60;99.90;;;;;;5072858;28;20033;-83
2021/12/15 05:34:46;;;;;;;60.40;27.00;;;9.60;99.90;;;;;;5056598;28;20437;-82
2021/12/15 05:37:13;;;;;;;67.82;28.75;;;9.60;99.90;;;;;;5078639;28;20128;-82
2021/12/15 05:39:40;;;;;;;61.50;27.73;;;9.60;99.90;;;;;;5074051;28;20063;-82
2021/12/15 05:42:06;;;;;;;64.70;27.67;;;9.60;99.90;;;;;;5072848;28;20062;-82
2021/12/15 05:44:32;;;;;;;59.42;26.95;;;9.50;99.90;;;;;;5076036;28;20455;-82
2021/12/15 05:47:00;;;;;;;57.15;24.98;;;9.60;99.90;;;;;;5074128;28;20036;-82
2021/12/15 05:49:27;;;;;;;60.45;27.70;;;9.60;99.90;;;;;;5075625;28;20491;-82
2021/12/15 05:51:54;;;;;;;63.33;28.67;;;9.60;99.90;;;;;;5080230;28;20052;-82
2021/12/15 05:54:19;;;;;;;60.80;25.80;;;9.60;99.90;;;;;;5075660;28;20516;-82
2021/12/15 05:56:45;;;;;;;63.92;29.00;;;9.60;99.90;;;;;;5074563;28;20032;-81
2021/12/15 05:59:11;;;;;;;65.53;27.67;;;9.60;99.90;;;;;;5083993;28;20471;-82
2021/12/15 06:01:37;;;;;;;70.60;27.88;;;9.60;99.90;;;;;;5086372;28;20455;-82
2021/12/15 06:04:05;;;;;;;67.22;28.05;;;9.60;99.90;;;;;;5076831;28;20036;-83
2021/12/15 06:06:31;;;;;;;70.22;26.98;;;9.60;99.90;;;;;;5063856;28;20444;-82
2021/12/15 06:08:57;;;;;;;68.47;29.17;;;9.60;99.90;;;;;;5077597;28;20165;-82
2021/12/15 06:11:23;;;;;;;62.53;28.15;;;9.50;99.90;;;;;;5077979;28;20039;-82
2021/12/15 06:13:50;;;;;;;60.10;26.73;;;9.60;99.90;;;;;;5077433;28;20491;-83
2021/12/15 06:16:18;;;;;;;65.07;27.63;;;9.50;99.90;;;;;;5079420;28;20475;-82
2021/12/15 06:18:44;;;;;;;62.53;26.85;;;9.50;99.90;;;;;;5068448;28;20048;-82
2021/12/15 06:21:10;;;;;;;64.32;26.73;;;9.60;99.90;;;;;;5084265;28;20526;-82
2021/12/15 06:23:37;;;;;;;60.67;24.65;;;9.50;99.90;;;;;;5077297;28;20409;-82
2021/12/15 06:26:05;;;;;;;69.10;27.10;;;9.60;99.90;;;;;;5076540;28;20029;-82
2021/12/15 06:28:33;;;;;;;63.20;27.80;;;9.60;99.90;;;;;;5069837;28;20130;-82
2021/12/15 06:31:00;;;;;;;68.03;28.10;;;9.60;99.90;;;;;;5079712;28;20070;-82
2021/12/15 06:33:28;;;;;;;58.92;24.48;;;9.60;99.90;;;;;;5063233;28;20032;-82
2021/12/15 06:35:57;;;;;;;62.70;25.40;;;9.60;99.90;;;;;;5065049;28;20549;-82
2021/12/15 06:38:26;;;;;;;65.68;25.73;;;9.60;99.90;;;;;;5081080;28;20028;-82
2021/12/15 06:40:52;;;;;;;56.63;22.92;;;9.50;99.90;;;;;;5079419;28;20038;-82
2021/12/15 06:43:18;;;;;;;60.72;25.08;;;9.50;99.90;;;;;;5077305;28;20143;-82
2021/12/15 06:46:08;;;;;;;57.42;24.98;;;9.60;99.90;;;;;;5074448;28;20032;-82
2021/12/15 06:59:31;;;;;;;61.92;26.95;;;9.60;99.90;;;;;;5076070;28;20040;-82
2021/12/15 07:01:57;;;;;;;59.47;25.88;;;9.60;99.90;;;;;;5075436;28;20064;-81
2021/12/15 07:04:23;;;;;;;60.67;26.60;;;9.50;99.90;;;;;;5083490;28;20047;-83
2021/12/15 07:06:51;;;;;;;65.65;26.23;;;9.50;99.90;;;;;;5060357;28;20130;-83
2021/12/15 07:09:17;;;;;;;66.75;26.10;;;9.50;99.90;;;;;;5074541;28;20056;-83
2021/12/15 07:11:43;;;;;;;61.78;26.33;;;9.50;99.90;;;;;;5033381;28;20045;-83
2021/12/15 07:14:10;;;;;;;62.97;27.38;;;9.50;99.90;;;;;;5046910;28;20070;-83
2021/12/15 07:16:40;;;;;;;57.05;25.13;;;9.50;99.90;;;;;;5045141;28;20095;-83
2021/12/15 07:19:17;;;;;;;57.30;24.38;;;9.50;99.90;;;;;;5050671;28;20135;-83
2021/12/15 07:21:53;;;;;;;58.83;24.23;;;9.50;99.90;;;;;;5039661;28;20053;-84
2021/12/15 07:24:19;;;;;;;63.72;25.70;;;9.50;99.90;;;;;;5026049;28;20045;-82
2021/12/15 07:26:45;;;;;;;62.65;25.52;;;9.50;99.90;;;;;;5051110;28;20051;-83
2021/12/15 07:29:10;;;;;;;57.58;24.38;;;9.50;99.90;;;;;;5053043;28;20568;-83
2021/12/15 07:31:36;;;;;;;63.28;26.75;;;9.50;99.90;;;;;;5048904;28;20099;-83
2021/12/15 07:34:02;;;;;;;58.85;24.80;;;9.50;99.90;;;;;;5055038;28;20159;-83
2021/12/15 07:36:28;;;;;;;58.75;23.58;;;9.50;99.90;;;;;;5030491;28;20041;-83
2021/12/15 07:38:56;;;;;;;66.15;25.05;;;9.50;99.90;;;;;;5046112;28;20482;-82
2021/12/15 07:41:27;;;;;;;67.78;25.20;;;9.50;99.90;;;;;;5045458;28;20068;-83
2021/12/15 07:43:55;;;;;;;53.88;23.48;;;9.40;99.90;;;;;;5045021;28;20037;-82
2021/12/15 07:46:21;;;;;;;57.67;25.52;;;9.50;99.90;;;;;;5043556;28;20078;-83
2021/12/15 07:48:46;;;;;;;59.80;24.08;;;9.50;99.90;;;;;;5044727;28;20037;-84
2021/12/15 07:51:13;;;;;;;59.53;25.35;;;9.40;99.90;;;;;;5048841;28;20049;-83
2021/12/15 07:53:41;;;;;;;58.88;25.80;;;9.50;99.90;;;;;;5047924;28;20090;-83
2021/12/15 07:56:07;;;;;;;58.72;23.45;;;9.50;99.90;;;;;;5030419;28;20039;-83
2021/12/15 07:58:33;;;;;;;60.70;24.98;;;9.50;99.90;;;;;;5048862;28;20096;-83
2021/12/15 08:01:01;;;;;;;61.63;24.35;;;9.50;99.90;;;;;;5053093;28;20029;-83
2021/12/15 08:03:30;;;;;;;59.42;25.83;;;9.50;99.90;;;;;;5044417;28;20120;-83
2021/12/15 08:05:56;;;;;;;66.07;25.00;;;9.50;99.90;;;;;;5043011;28;20067;-84
2021/12/15 08:08:22;;;;;;;57.20;23.50;;;9.50;99.90;;;;;;5047352;28;20067;-83
2021/12/15 08:10:49;;;;;;;57.65;23.08;;;9.50;99.90;;;;;;5050956;28;20037;-83
2021/12/15 08:13:15;;;;;;;59.78;24.92;;;9.50;99.90;;;;;;5051133;28;20512;-83
2021/12/15 08:15:43;;;;;;;56.13;22.90;;;9.50;99.90;;;;;;5048762;28;20041;-84
2021/12/15 08:18:09;;;;;;;57.80;23.42;;;9.60;99.90;;;;;;5038229;28;20024;-83
2021/12/15 08:20:35;;;;;;;60.55;24.52;;;9.60;99.90;;;;;;5026813;28;20039;-83
2021/12/15 08:23:02;;;;;;;58.28;24.30;;;9.60;99.90;;;;;;5040202;28;20131;-83
2021/12/15 08:25:30;;;;;;;57.80;23.65;;;9.60;99.90;;;;;;5049866;28;20044;-83
2021/12/15 08:27:56;;;;;;;60.53;23.08;;;9.60;99.90;;;;;;5049346;28;20049;-83
2021/12/15 08:30:25;;;;;;;60.70;24.20;;;9.60;99.90;;;;;;5052570;28;20041;-83
2021/12/15 08:32:56;;;;;;;67.07;25.38;;;9.60;99.90;;;;;;5034273;28;20040;-83
2021/12/15 08:35:27;;;;;;;65.90;24.08;;;9.60;99.90;;;;;;5044026;28;20044;-83
2021/12/15 08:37:53;;;;;;;66.72;25.13;;;9.60;99.90;;;;;;5046371;28;20130;-83
2021/12/15 08:40:21;;;;;;;56.22;23.65;;;9.60;99.90;;;;;;5039717;28;20045;-82
2021/12/15 08:42:47;;;;;;;59.50;24.30;;;9.70;99.90;;;;;;5041945;28;20403;-82
2021/12/15 08:45:13;;;;;;;58.60;24.30;;;9.70;99.90;;;;;;5059148;28;20037;-82
2021/12/15 08:47:39;;;;;;;62.45;24.92;;;9.70;99.90;;;;;;5045032;28;20048;-82
2021/12/15 08:50:08;;;;;;;61.42;23.70;;;9.70;99.90;;;;;;5045664;28;20154;-83
2021/12/15 08:52:34;;;;;;;64.20;24.73;;;9.70;99.90;;;;;;5044152;28;20113;-82
2021/12/15 08:55:00;;;;;;;56.53;23.08;;;9.70;99.90;;;;;;5028313;28;20033;-82
2021/12/15 08:57:25;;;;;;;53.22;23.60;;;9.70;99.90;;;;;;5048998;28;20040;-82
2021/12/15 08:59:51;;;;;;;57.83;22.73;;;9.70;99.90;;;;;;5052318;28;20531;-82
2021/12/15 09:02:17;;;;;;;55.65;22.17;;;9.70;99.90;;;;;;5045060;28;20044;-83
2021/12/15 09:04:42;;;;;;;58.17;22.92;;;9.70;99.90;;;;;;5027345;28;20514;-82
2021/12/15 09:07:08;;;;;;;61.10;23.85;;;9.70;99.90;;;;;;5043685;28;20043;-82
2021/12/15 09:09:34;;;;;;;59.47;22.88;;;9.80;99.90;;;;;;5047820;28;20158;-82
2021/12/15 09:12:01;;;;;;;60.13;22.95;;;9.80;99.90;;;;;;5042702;28;20033;-82
2021/12/15 09:14:27;;;;;;;54.65;23.05;;;9.80;99.90;;;;;;5033057;28;20036;-84
2021/12/15 09:16:56;;;;;;;59.92;24.48;;;9.80;99.90;;;;;;5039155;28;20171;-82
2021/12/15 09:19:22;;;;;;;54.67;22.90;;;9.80;99.90;;;;;;5049618;28;20111;-82
2021/12/15 09:21:51;;;;;;;56.20;22.52;;;9.90;99.90;;;;;;5047186;28;20122;-82
2021/12/15 09:24:18;;;;;;;61.20;25.85;;;9.90;99.90;;;;;;5045399;28;20051;-82
2021/12/15 09:26:44;;;;;;;57.72;23.63;;;9.90;99.90;;;;;;5048488;28;20045;-82
2021/12/15 09:29:10;;;;;;;62.63;25.08;;;9.90;99.90;;;;;;5052467;28;20546;-82
2021/12/15 09:31:38;;;;;;;54.63;23.73;;;9.90;99.90;;;;;;5044218;28;20041;-82
2021/12/15 09:34:08;;;;;;;59.65;22.95;;;9.90;99.90;;;;;;5048320;28;20379;-81
2021/12/15 09:36:34;;;;;;;59.60;24.02;;;9.90;99.90;;;;;;5027951;28;20089;-82
2021/12/15 09:39:06;;;;;;;57.35;22.63;;;9.90;99.90;;;;;;5047782;28;20037;-82
2021/12/15 09:41:32;;;;;;;56.40;23.73;;;9.90;99.90;;;;;;5051701;28;20048;-81
2021/12/15 09:44:05;;;;;;;55.42;23.60;;;10.00;99.90;;;;;;5044441;28;20649;-82
2021/12/15 09:46:40;;;;;;;53.15;22.35;;;10.00;99.90;;;;;;5031859;28;20075;-82
2021/12/15 10:03:05;;;;;;;46.63;20.10;;;10.10;99.90;;;;;;5043894;28;20135;-81
2021/12/15 10:19:20;;;;;;;43.95;18.10;;;10.10;99.90;;;;;;5045588;28;20045;-82
2021/12/15 10:22:27;;;;;;;43.63;18.25;;;10.20;99.90;;;;;;5032519;28;20135;-82
2021/12/15 10:25:16;;;;;;;44.58;19.55;;;10.20;99.90;;;;;;5022085;28;20045;-82
2021/12/15 10:27:52;;;;;;;44.90;19.85;;;10.30;99.90;;;;;;5038616;28;20053;-82
2021/12/15 10:30:34;;;;;;;41.00;17.30;;;10.30;99.90;;;;;;5041204;28;20077;-82
2021/12/15 10:33:21;;;;;;;44.63;18.88;;;10.40;99.90;;;;;;5041581;28;21740;-82
2021/12/15 10:35:54;;;;;;;38.13;17.63;;;10.40;99.90;;;;;;5045655;28;20041;-82
2021/12/15 10:38:27;;;;;;;40.72;18.52;;;10.40;99.90;;;;;;5048243;28;20059;-81
2021/12/15 10:41:18;;;;;;;41.50;17.73;;;10.50;99.90;;;;;;5053883;28;20045;-81
2021/12/15 10:43:52;;;;;;;41.10;18.80;;;10.50;99.90;;;;;;5039166;28;20061;-82
2021/12/15 10:46:24;;;;;;;39.25;17.55;;;10.60;99.90;;;;;;5024925;28;20036;-82
2021/12/15 10:48:56;;;;;;;42.58;18.95;;;10.60;99.90;;;;;;5041348;28;20036;-82
2021/12/15 10:51:33;;;;;;;;;;;10.60;99.90;;;;;;5062060;28;20040;-82
2021/12/15 10:54:03;;;;;;;37.42;17.67;;;10.60;99.90;;;;;;5039852;28;19972;-82
2021/12/15 10:56:32;;;;;;;39.53;17.70;;;10.60;99.90;;;;;;5042371;28;20396;-82
2021/12/15 10:59:03;;;;;;;36.65;17.92;;;10.60;99.90;;;;;;5028173;28;20158;-81
2021/12/15 11:01:43;;;;;;;40.92;17.73;;;10.60;99.90;;;;;;5046181;28;20041;-81
2021/12/15 11:04:30;;;;;;;38.45;17.80;;;10.50;99.90;;;;;;5031886;28;20033;-82
2021/12/15 11:07:15;;;;;;;40.70;17.13;;;10.50;99.90;;;;;;5047416;28;20114;-82
2021/12/15 11:09:58;;;;;;;32.35;16.08;;;10.50;99.90;;;;;;5044459;28;20066;-82
2021/12/15 11:12:47;;;;;;;37.22;16.17;;;10.50;99.90;;;;;;5035620;28;20048;-82
2021/12/15 11:15:28;;;;;;;35.92;15.98;;;10.40;99.90;;;;;;5044902;28;20040;-82
2021/12/15 11:18:09;;;;;;;33.25;15.70;;;10.50;99.90;;;;;;5049338;28;20037;-81
2021/12/15 11:20:48;;;;;;;34.42;16.55;;;10.50;99.90;;;;;;5041348;28;21085;-82
2021/12/15 11:23:16;;;;;;;28.23;15.07;;;10.60;99.90;;;;;;5050651;28;20073;-82
2021/12/15 11:26:11;;;;;;;31.95;15.18;;;10.60;99.90;;;;;;5032654;28;20487;-84
2021/12/15 11:28:47;;;;;;;32.35;15.15;;;10.70;99.90;;;;;;5029126;28;20124;-82
2021/12/15 11:31:17;;;;;;;30.73;15.05;;;10.70;99.90;;;;;;5048866;28;20048;-83
2021/12/15 11:33:44;;;;;;;27.83;13.98;;;10.70;99.90;;;;;;5047779;28;20478;-83
2021/12/15 11:36:31;;;;;;;24.52;13.35;;;10.70;99.90;;;;;;5024865;28;20116;-83
2021/12/15 11:38:59;;;;;;;27.05;13.27;;;10.80;99.90;;;;;;5043900;28;20056;-82
2021/12/15 11:41:32;;;;;;;31.23;13.57;;;10.70;99.90;;;;;;5034437;28;20037;-83
2021/12/15 11:44:18;;;;;;;27.75;13.15;;;10.70;99.90;;;;;;5049931;28;20064;-82
2021/12/15 11:46:53;;;;;;;29.00;12.90;;;10.70;99.90;;;;;;5048853;28;20406;-82
2021/12/15 11:49:21;;;;;;;24.27;11.82;;;10.80;99.90;;;;;;5033956;28;20053;-82
2021/12/15 11:51:57;;;;;;;29.75;12.77;;;10.70;99.90;;;;;;5050673;28;20056;-82
2021/12/15 11:54:33;;;;;;;21.25;11.27;;;10.80;99.90;;;;;;5041799;28;20421;-83
2021/12/15 11:57:19;;;;;;;27.13;13.00;;;10.70;99.90;;;;;;5049455;28;20044;-83
2021/12/15 11:59:49;;;;;;;25.05;11.15;;;10.80;99.90;;;;;;5043549;28;20048;-82
2021/12/15 12:02:22;;;;;;;23.38;11.10;;;10.70;99.90;;;;;;5044713;28;20068;-83
2021/12/15 12:04:52;;;;;;;;;;;10.70;99.90;;;;;;5047432;28;20078;-82
2021/12/15 12:07:18;;;;;;;21.70;11.38;;;10.70;99.90;;;;;;5056047;28;20373;-83
2021/12/15 12:09:46;;;;;;;20.17;11.18;;;10.70;99.90;;;;;;5052982;28;20536;-83
2021/12/15 12:12:13;;;;;;;20.08;10.40;;;10.70;99.90;;;;;;5035254;28;20533;-83
2021/12/15 12:14:48;;;;;;;26.63;11.98;;;10.80;99.90;;;;;;5027400;28;20037;-83
2021/12/15 12:17:17;;;;;;;22.50;11.20;;;10.80;99.90;;;;;;5024329;28;20037;-82
2021/12/15 12:19:50;;;;;;;18.33;10.57;;;10.80;99.90;;;;;;5046873;28;20056;-83
2021/12/15 12:22:16;;;;;;;;;;;10.70;99.90;;;;;;5043972;28;20037;-82
2021/12/15 12:24:46;;;;;;;19.20;9.90;;;10.70;99.90;;;;;;5030707;28;19939;-83
2021/12/15 12:27:12;;;;;;;21.55;11.27;;;10.70;99.90;;;;;;5038946;28;20041;-82
2021/12/15 12:29:38;;;;;;;25.90;12.07;;;10.70;99.90;;;;;;5045274;28;20419;-82
2021/12/15 12:32:04;;;;;;;24.08;11.25;;;10.60;99.90;;;;;;5040266;28;20067;-82
2021/12/15 12:34:30;;;;;;;27.45;11.18;;;10.60;99.90;;;;;;5055619;28;20045;-82
2021/12/15 12:36:56;;;;;;;27.35;11.70;;;10.60;99.90;;;;;;5044385;28;20552;-82
2021/12/15 12:39:30;;;;;;;20.17;10.68;;;10.60;99.90;;;;;;5043595;28;20036;-82
2021/12/15 12:41:56;;;;;;;20.58;10.52;;;10.60;99.90;;;;;;5012781;28;20053;-82
2021/12/15 12:44:24;;;;;;;20.63;9.52;;;10.70;99.90;;;;;;5044328;28;20037;-82
2021/12/15 13:00:55;;;;;;;16.52;7.53;;;10.70;99.90;;;;;;4973177;28;20046;-83
2021/12/15 13:03:31;;;;;;;;;;;10.70;99.90;;;;;;4977363;28;20061;-82
2021/12/15 13:06:08;;;;;;;13.43;7.13;;;10.70;99.90;;;;;;4974542;28;19926;-81
2021/12/15 13:08:43;;;;;;;15.85;7.32;;;10.70;99.90;;;;;;4954805;28;20042;-81
2021/12/15 13:11:17;;;;;;;17.15;7.05;;;10.70;99.90;;;;;;4978372;28;20030;-81
2021/12/15 13:14:02;;;;;;;13.93;7.10;;;10.60;99.90;;;;;;4975537;28;20683;-81
2021/12/15 13:16:52;;;;;;;11.95;6.90;;;10.60;99.90;;;;;;4985972;28;20033;-80
2021/12/15 13:19:26;;;;;;;13.75;6.18;;;10.60;99.90;;;;;;4964381;28;20047;-81
2021/12/15 13:30:53;;;;;;;17.38;6.55;;;10.50;99.90;;;;;;4973758;28;20046;-82
2021/12/15 13:33:29;;;;;;;13.57;6.10;;;10.50;99.90;;;;;;4959480;28;20447;-82
2021/12/15 13:36:08;;;;;;;12.07;5.10;;;10.50;99.90;;;;;;4973714;28;20030;-82
2021/12/15 13:38:56;;;;;;;14.55;5.63;;;10.50;99.90;;;;;;4992183;28;20550;-82
2021/12/15 13:44:30;;;;;;;9.15;4.00;;;10.50;99.90;;;;;;4974317;28;20092;-82
2021/12/15 13:47:14;;;;;;;9.40;3.22;;;10.50;99.90;;;;;;4975836;28;20070;-82
2021/12/15 13:49:46;;;;;;;7.80;2.90;;;10.50;99.90;;;;;;4912838;29;20044;-81
2021/12/15 13:52:30;;;;;;;5.00;1.90;;;10.40;99.90;;;;;;4943123;28;20052;-82
2021/12/15 13:55:27;;;;;;;3.15;1.25;;;10.40;99.90;;;;;;4913077;28;20134;-81
2021/12/15 13:58:17;;;;;;;4.25;1.10;;;10.40;99.90;;;;;;4925428;29;20344;-81
2021/12/15 14:00:56;;;;;;;6.05;1.38;;;10.40;99.90;;;;;;4929976;29;20089;-81
2021/12/15 14:03:43;;;;;;;4.13;0.82;;;10.40;99.90;;;;;;4943452;29;20472;-82
2021/12/15 14:06:13;;;;;;;3.08;0.90;;;10.40;99.90;;;;;;4948078;29;20039;-82
2021/12/15 14:08:43;;;;;;;4.45;1.08;;;10.40;99.90;;;;;;4963597;28;20039;-82
2021/12/15 14:11:22;;;;;;;4.85;1.02;;;10.40;99.90;;;;;;4945247;29;20066;-82
2021/12/15 14:13:56;;;;;;;3.65;0.70;;;10.30;99.90;;;;;;4951002;29;20420;-82
2021/12/15 14:16:34;;;;;;;5.18;0.68;;;10.30;99.90;;;;;;4949050;29;20051;-82
2021/12/15 14:19:04;;;;;;;4.57;0.77;;;10.20;99.90;;;;;;4966933;28;20126;-82
2021/12/15 14:21:31;;;;;;;4.70;1.00;;;10.20;99.90;;;;;;4954107;29;20039;-82
2021/12/15 14:23:59;;;;;;;3.20;0.85;;;10.10;99.90;;;;;;4935719;29;20050;-82
2021/12/15 14:26:31;;;;;;;4.85;0.93;;;10.10;99.90;;;;;;4937170;29;20043;-81